createdAt,value
2023-01-26T00:01:17.290Z,101915.67
2023-01-26T00:03:43.995Z,101911.21
2023-01-26T00:06:12.384Z,101910.86
2023-01-26T00:08:40.517Z,101910.86
2023-01-26T00:11:08.353Z,101912.55
2023-01-26T00:13:35.519Z,101910.14
2023-01-26T00:16:02.789Z,101916.14
2023-01-26T00:18:30.420Z,101915.46
2023-01-26T00:21:01.771Z,101912.54
2023-01-26T00:23:29.946Z,101908.24
2023-01-26T00:25:57.307Z,101910.80
2023-01-26T00:28:24.141Z,101910.12
2023-01-26T00:30:51.027Z,101910.79
2023-01-26T00:33:18.345Z,101910.77
2023-01-26T00:35:53.888Z,101908.73
2023-01-26T00:38:20.730Z,101910.96
2023-01-26T00:40:48.395Z,101909.05
2023-01-26T00:43:15.580Z,101912.33
2023-01-26T00:45:42.388Z,101909.91
2023-01-26T00:48:12.817Z,101912.98
2023-01-26T00:58:24.784Z,101911.50
2023-01-26T01:00:53.477Z,101914.45
2023-01-26T01:03:21.662Z,101913.58
2023-01-26T01:05:49.906Z,101912.56
2023-01-26T01:08:18.067Z,101914.95
2023-01-26T01:10:46.159Z,101911.34
2023-01-26T01:13:19.452Z,101914.23
2023-01-26T01:15:47.846Z,101913.70
2023-01-26T01:18:17.451Z,101908.37
2023-01-26T01:20:47.460Z,101903.73
2023-01-26T01:23:16.000Z,101900.98
2023-01-26T01:25:44.027Z,101899.26
2023-01-26T01:28:12.877Z,101898.08
2023-01-26T01:30:41.622Z,101901.34
2023-01-26T01:33:10.165Z,101900.14
2023-01-26T01:35:38.220Z,101899.08
2023-01-26T01:38:06.822Z,101896.67
2023-01-26T01:40:35.508Z,101890.84
2023-01-26T01:43:03.595Z,101890.48
2023-01-26T01:45:41.627Z,101894.05
2023-01-26T01:48:19.085Z,101891.31
2023-01-26T01:50:47.252Z,101892.51
2023-01-26T01:53:19.743Z,101892.34
2023-01-26T01:55:48.515Z,101896.11
2023-01-26T01:58:16.728Z,101896.12
2023-01-26T02:00:45.003Z,101898.34
2023-01-26T02:03:19.319Z,101895.80
2023-01-26T02:06:09.092Z,101892.55
2023-01-26T02:08:45.227Z,101888.93
2023-01-26T02:11:17.893Z,101893.39
2023-01-26T02:13:47.575Z,101892.17
2023-01-26T02:16:17.165Z,101892.67
2023-01-26T02:18:45.881Z,101891.13
2023-01-26T02:21:18.730Z,101888.22
2023-01-26T02:24:19.980Z,101877.25
2023-01-26T02:26:48.144Z,101875.73
2023-01-26T02:29:16.915Z,101873.52
2023-01-26T02:31:45.598Z,101869.43
2023-01-26T02:34:13.922Z,101865.16
2023-01-26T02:36:42.364Z,101861.41
2023-01-26T02:39:59.798Z,101857.14
2023-01-26T02:42:42.192Z,101853.39
2023-01-26T02:45:15.301Z,101849.98
2023-01-26T02:47:45.529Z,101848.63
2023-01-26T02:50:17.069Z,101841.11
2023-01-26T02:52:45.578Z,101839.59
2023-01-26T02:55:26.415Z,101841.32
2023-01-26T02:57:56.556Z,101837.39
2023-01-26T03:00:32.881Z,101839.96
2023-01-26T03:03:01.341Z,101838.59
2023-01-26T03:05:32.657Z,101841.86
2023-01-26T03:08:01.638Z,101836.02
2023-01-26T03:10:37.178Z,101832.27
2023-01-26T03:13:05.789Z,101831.58
2023-01-26T03:15:43.426Z,101829.69
2023-01-26T03:18:35.016Z,101836.04
2023-01-26T03:21:28.358Z,101832.77
2023-01-26T03:24:15.292Z,101836.73
2023-01-26T03:27:03.137Z,101834.85
2023-01-26T03:29:31.546Z,101834.52
2023-01-26T03:32:01.095Z,101838.29
2023-01-26T03:34:29.969Z,101835.38
2023-01-26T03:37:00.099Z,101835.70
2023-01-26T03:39:55.326Z,101837.25
2023-01-26T03:42:42.740Z,101833.14
2023-01-26T03:45:29.946Z,101831.77
2023-01-26T03:48:28.545Z,101835.05
2023-01-26T03:51:16.073Z,101832.45
2023-01-26T03:54:03.739Z,101838.48
2023-01-26T03:56:35.082Z,101836.77
2023-01-26T03:59:10.116Z,101844.15
2023-01-26T04:01:42.615Z,101845.35
2023-01-26T04:04:30.381Z,101844.48
2023-01-26T04:07:17.538Z,101845.16
2023-01-26T04:09:49.680Z,101848.08
2023-01-26T04:12:18.165Z,101846.38
2023-01-26T04:15:16.827Z,101848.09
2023-01-26T04:18:04.076Z,101850.48
2023-01-26T04:20:52.555Z,101846.90
2023-01-26T04:23:20.682Z,101844.16
2023-01-26T04:25:50.632Z,101847.25
2023-01-26T04:28:19.706Z,101845.54
2023-01-26T04:30:49.551Z,101842.45
2023-01-26T04:33:18.107Z,101843.46
2023-01-26T04:35:46.480Z,101846.71
2023-01-26T04:38:14.702Z,101846.02
2023-01-26T04:40:44.157Z,101846.37
2023-01-26T04:43:12.411Z,101849.13
2023-01-26T04:45:40.636Z,101854.77
2023-01-26T04:48:09.153Z,101858.04
2023-01-26T04:50:37.511Z,101861.63
2023-01-26T04:53:06.080Z,101860.59
2023-01-26T04:55:34.162Z,101864.17
2023-01-26T04:58:03.944Z,101865.20
2023-01-26T05:00:32.705Z,101866.41
2023-01-26T05:03:05.077Z,101869.50
2023-01-26T05:05:38.314Z,101869.68
2023-01-26T05:08:06.607Z,101869.19
2023-01-26T05:10:35.499Z,101873.82
2023-01-26T05:13:38.271Z,101876.05
2023-01-26T05:16:17.314Z,101879.50
2023-01-26T05:19:02.132Z,101881.91
2023-01-26T05:21:44.137Z,101877.97
2023-01-26T05:24:13.373Z,101875.39
2023-01-26T05:27:19.332Z,101872.14
2023-01-26T05:29:51.417Z,101873.33
2023-01-26T05:32:20.264Z,101874.19
2023-01-26T05:34:48.482Z,101874.35
2023-01-26T05:37:16.922Z,101874.54
2023-01-26T05:39:46.717Z,101875.04
2023-01-26T05:42:16.165Z,101872.13
2023-01-26T05:45:16.671Z,101871.27
2023-01-26T05:47:45.758Z,101871.60
2023-01-26T05:50:13.955Z,101872.96
2023-01-26T05:52:46.684Z,101873.31
2023-01-26T05:55:14.873Z,101874.67
2023-01-26T05:57:43.172Z,101873.29
2023-01-26T06:00:12.681Z,101872.24
2023-01-26T06:02:48.464Z,101875.70
2023-01-26T06:05:18.025Z,101879.47
2023-01-26T06:07:47.337Z,101878.80
2023-01-26T06:10:19.915Z,101877.79
2023-01-26T06:13:03.618Z,101881.23
2023-01-26T06:15:42.693Z,101878.33
2023-01-26T06:18:11.541Z,101880.05
2023-01-26T06:20:44.209Z,101883.15
2023-01-26T06:23:14.487Z,101880.05
2023-01-26T06:25:45.833Z,101879.20
2023-01-26T06:28:14.681Z,101884.02
2023-01-26T06:30:42.739Z,101887.45
2023-01-26T06:33:13.117Z,101889.35
2023-01-26T06:35:42.224Z,101887.13
2023-01-26T06:38:15.716Z,101886.62
2023-01-26T06:40:43.804Z,101887.13
2023-01-26T06:43:15.948Z,101887.66
2023-01-26T06:45:44.252Z,101889.20
2023-01-26T06:48:12.883Z,101886.98
2023-01-26T06:50:40.963Z,101889.73
2023-01-26T06:53:35.378Z,101889.05
2023-01-26T06:56:23.454Z,101889.23
2023-01-26T06:59:29.815Z,101888.73
2023-01-26T07:02:26.498Z,101889.23
2023-01-26T07:04:54.800Z,101890.44
2023-01-26T07:07:24.721Z,101889.23
2023-01-26T07:10:13.193Z,101884.77
2023-01-26T07:12:42.959Z,101883.91
2023-01-26T07:15:12.084Z,101881.68
2023-01-26T07:17:41.004Z,101878.06
2023-01-26T07:20:09.979Z,101885.63
2023-01-26T07:22:38.277Z,101885.80
2023-01-26T07:25:09.228Z,101890.95
2023-01-26T07:27:38.020Z,101890.59
2023-01-26T07:30:06.998Z,101888.88
2023-01-26T07:32:35.684Z,101887.32
2023-01-26T07:35:04.853Z,101888.02
2023-01-26T07:37:33.233Z,101892.83
2023-01-26T07:40:02.640Z,101889.37
2023-01-26T07:42:31.550Z,101887.48
2023-01-26T07:45:06.572Z,101891.59
2023-01-26T07:47:36.105Z,101890.20
2023-01-26T07:50:04.852Z,101887.45
2023-01-26T07:52:33.025Z,101883.65
2023-01-26T07:55:01.305Z,101878.30
2023-01-26T07:57:29.559Z,101880.17
2023-01-26T07:59:57.676Z,101880.34
2023-01-26T08:02:25.942Z,101876.38
2023-01-26T08:04:54.207Z,101879.45
2023-01-26T08:07:22.731Z,101881.68
2023-01-26T08:09:51.587Z,101883.72
2023-01-26T08:12:19.864Z,101885.09
2023-01-26T08:14:48.035Z,101880.93
2023-01-26T08:17:17.731Z,101880.90
2023-01-26T08:19:50.012Z,101879.49
2023-01-26T08:22:18.312Z,101874.99
2023-01-26T08:24:46.573Z,101875.30
2023-01-26T08:27:16.301Z,101869.60
2023-01-26T08:29:44.643Z,101870.59
2023-01-26T08:32:12.799Z,101869.00
2023-01-26T08:34:41.116Z,101870.71
2023-01-26T08:37:09.265Z,101872.92
2023-01-26T08:39:37.377Z,101876.86
2023-01-26T08:42:05.533Z,101872.38
2023-01-26T08:44:33.639Z,101874.24
2023-01-26T08:47:01.776Z,101868.17
2023-01-26T08:49:30.193Z,101867.25
2023-01-26T08:51:58.639Z,101861.17
2023-01-26T08:54:26.811Z,101860.45
2023-01-26T08:56:55.505Z,101857.15
2023-01-26T08:59:23.899Z,101853.67
2023-01-26T09:01:52.246Z,101851.42
2023-01-26T09:04:20.716Z,101845.05
2023-01-26T09:06:48.925Z,101842.61
2023-01-26T09:09:34.155Z,101833.91
2023-01-26T09:12:02.599Z,101832.68
2023-01-26T09:14:32.075Z,101831.11
2023-01-26T09:17:02.405Z,101833.52
2023-01-26T09:19:31.271Z,101828.50
2023-01-26T09:21:59.672Z,101823.30
2023-01-26T09:24:28.335Z,101821.23
2023-01-26T09:26:57.728Z,101814.67
2023-01-26T09:29:25.949Z,101810.20
2023-01-26T09:31:54.214Z,101807.80
2023-01-26T09:34:22.460Z,101807.11
2023-01-26T09:36:51.180Z,101810.19
2023-01-26T09:39:20.079Z,101804.45
2023-01-26T09:41:48.144Z,101805.59
2023-01-26T09:44:21.126Z,101802.92
2023-01-26T09:47:19.773Z,101803.89
2023-01-26T09:49:50.859Z,101801.20
2023-01-26T09:52:38.088Z,101805.39
2023-01-26T09:55:15.524Z,101801.38
2023-01-26T09:57:47.652Z,101801.14
2023-01-26T10:00:22.094Z,101797.61
2023-01-26T10:03:22.162Z,101800.30
2023-01-26T10:06:05.276Z,101793.26
2023-01-26T10:08:51.973Z,101789.67
2023-01-26T10:11:51.427Z,101789.12
2023-01-26T10:14:25.703Z,101779.65
2023-01-26T10:16:53.950Z,101776.82
2023-01-26T10:19:37.679Z,101771.82
2023-01-26T10:22:10.439Z,101772.51
2023-01-26T10:24:38.562Z,101766.64
2023-01-26T10:27:11.838Z,101765.82
2023-01-26T10:29:40.088Z,101765.57
2023-01-26T10:32:14.676Z,101768.91
2023-01-26T10:34:43.558Z,101765.02
2023-01-26T10:37:28.777Z,101762.94
2023-01-26T10:40:04.928Z,101760.51
2023-01-26T10:42:34.472Z,101758.07
2023-01-26T10:45:07.332Z,101757.36
2023-01-26T10:47:36.341Z,101758.05
2023-01-26T10:50:18.815Z,101760.83
2023-01-26T10:52:57.638Z,101758.55
2023-01-26T10:55:26.312Z,101763.02
2023-01-26T10:57:54.561Z,101756.21
2023-01-26T11:00:29.206Z,101749.72
2023-01-26T11:03:17.789Z,101746.92
2023-01-26T11:05:56.557Z,101743.46
2023-01-26T11:08:37.922Z,101742.75
2023-01-26T11:11:08.132Z,101738.03
2023-01-26T11:13:36.672Z,101739.00
2023-01-26T11:16:21.890Z,101735.71
2023-01-26T11:18:57.893Z,101729.98
2023-01-26T11:21:29.359Z,101727.33
2023-01-26T11:24:26.448Z,101728.27
2023-01-26T11:27:13.261Z,101725.56
2023-01-26T11:29:44.016Z,101722.34
2023-01-26T11:32:37.155Z,101715.34
2023-01-26T11:35:13.196Z,101714.71
2023-01-26T11:37:46.303Z,101711.55
2023-01-26T11:40:39.622Z,101711.90
2023-01-26T11:43:23.471Z,101710.03
2023-01-26T11:46:08.892Z,101709.95
2023-01-26T11:49:10.313Z,101704.42
2023-01-26T11:52:04.353Z,101708.30
2023-01-26T11:54:46.633Z,101705.41
2023-01-26T11:57:52.793Z,101706.05
2023-01-26T12:00:33.870Z,101704.79
2023-01-26T12:03:03.427Z,101703.85
2023-01-26T12:05:43.313Z,101700.02
2023-01-26T12:08:13.042Z,101698.11
2023-01-26T12:10:56.539Z,101698.23
2023-01-26T12:13:28.107Z,101699.10
2023-01-26T12:16:00.616Z,101702.42
2023-01-26T12:18:49.109Z,101706.65
2023-01-26T12:21:22.082Z,101702.74
2023-01-26T12:24:02.490Z,101703.11
2023-01-26T12:26:36.970Z,101700.42
2023-01-26T12:29:17.310Z,101698.92
2023-01-26T12:31:54.679Z,101697.92
2023-01-26T12:34:27.080Z,101698.36
2023-01-26T12:37:28.450Z,101698.94
2023-01-26T12:40:09.478Z,101696.11
2023-01-26T12:42:56.910Z,101692.95
2023-01-26T12:45:30.526Z,101690.93
2023-01-26T12:48:14.854Z,101685.99
2023-01-26T12:50:47.590Z,101687.05
2023-01-26T12:53:21.759Z,101686.52
2023-01-26T12:55:53.669Z,101687.06
2023-01-26T12:58:27.707Z,101688.53
2023-01-26T13:01:11.543Z,101684.17
2023-01-26T13:04:01.920Z,101684.41
2023-01-26T13:06:30.192Z,101682.11
2023-01-26T13:08:58.725Z,101684.13
2023-01-26T13:11:39.425Z,101679.27
2023-01-26T13:14:43.444Z,101675.46
2023-01-26T13:17:17.445Z,101674.05
2023-01-26T13:19:45.699Z,101671.60
2023-01-26T13:22:23.084Z,101673.15
2023-01-26T13:25:31.714Z,101669.36
2023-01-26T13:28:03.991Z,101670.27
2023-01-26T13:30:44.031Z,101670.69
2023-01-26T13:33:13.767Z,101669.74
2023-01-26T13:35:41.988Z,101669.52
2023-01-26T13:38:47.305Z,101668.95
2023-01-26T13:41:19.432Z,101671.50
2023-01-26T13:44:08.552Z,101668.08
2023-01-26T13:46:44.117Z,101667.81
2023-01-26T13:49:37.122Z,101672.77
2023-01-26T13:52:17.991Z,101679.61
2023-01-26T13:54:46.455Z,101682.58
2023-01-26T13:57:26.004Z,101679.36
2023-01-26T14:00:01.448Z,101680.93
2023-01-26T14:02:39.098Z,101680.45
2023-01-26T16:09:20.437Z,101662.90
2023-01-26T16:11:48.368Z,101666.73
2023-01-26T16:14:15.402Z,101666.52
2023-01-26T16:16:42.344Z,101667.55
2023-01-26T16:19:09.577Z,101664.77
2023-01-26T16:21:40.946Z,101661.95
2023-01-26T16:24:08.802Z,101665.38
2023-01-26T16:26:37.221Z,101665.91
2023-01-26T16:29:04.093Z,101662.63
2023-01-26T16:31:32.209Z,101660.05
2023-01-26T16:34:00.421Z,101658.84
2023-01-26T16:36:27.226Z,101656.77
2023-01-26T16:38:53.861Z,101653.45
2023-01-26T16:41:27.207Z,101662.77
2023-01-26T16:43:54.355Z,101662.25
2023-01-26T16:46:21.034Z,101660.52
2023-01-26T16:48:48.320Z,101662.77
2023-01-26T16:51:23.662Z,101661.20
2023-01-26T16:53:50.721Z,101661.03
2023-01-26T16:56:18.379Z,101661.02
2023-01-26T16:58:45.525Z,101662.91
2023-01-26T17:01:17.545Z,101663.76
2023-01-26T17:03:44.789Z,101664.60
2023-01-26T17:06:12.113Z,101668.90
2023-01-26T17:14:46.174Z,101665.70
2023-01-26T17:17:15.250Z,101665.36
2023-01-26T17:19:44.660Z,101669.89
2023-01-26T17:22:13.355Z,101672.55
2023-01-26T17:24:42.825Z,101668.48
2023-01-26T17:27:11.259Z,101669.56
2023-01-26T17:29:42.479Z,101668.21
2023-01-26T17:32:11.145Z,101668.23
2023-01-26T17:34:39.277Z,101664.61
2023-01-26T17:37:07.714Z,101664.74
2023-01-26T17:39:35.947Z,101663.16
2023-01-26T17:42:04.265Z,101659.70
2023-01-26T17:44:32.419Z,101660.55
2023-01-26T17:47:00.889Z,101656.94
2023-01-26T17:49:30.542Z,101653.14
2023-01-26T17:51:58.748Z,101655.38
2023-01-26T17:54:27.834Z,101653.48
2023-01-26T17:56:56.564Z,101649.86
2023-01-26T17:59:25.613Z,101651.05
2023-01-26T18:01:53.911Z,101654.31
2023-01-26T18:04:22.285Z,101652.29
2023-01-26T18:06:50.720Z,101650.79
2023-01-26T18:09:19.094Z,101651.48
2023-01-26T18:11:48.336Z,101650.27
2023-01-26T18:14:16.473Z,101646.60
2023-01-26T18:16:44.873Z,101645.38
2023-01-26T18:19:13.564Z,101638.48
2023-01-26T18:21:43.043Z,101643.55
2023-01-26T18:24:11.319Z,101643.80
2023-01-26T18:26:40.316Z,101644.90
2023-01-26T18:29:09.075Z,101645.09
2023-01-26T18:31:40.752Z,101647.52
2023-01-26T18:34:10.772Z,101645.27
2023-01-26T18:36:39.686Z,101639.73
2023-01-26T18:39:10.798Z,101643.55
2023-01-26T18:41:43.370Z,101642.89
2023-01-26T18:44:12.134Z,101640.85
2023-01-26T18:46:40.364Z,101641.92
2023-01-26T18:49:10.191Z,101642.27
2023-01-26T18:51:39.190Z,101643.77
2023-01-26T18:54:09.899Z,101642.70
2023-01-26T18:56:38.173Z,101644.44
2023-01-26T18:59:09.933Z,101641.56
2023-01-26T19:01:39.056Z,101642.47
2023-01-26T19:04:07.660Z,101643.03
2023-01-26T19:06:36.709Z,101636.34
2023-01-26T19:09:06.506Z,101638.73
2023-01-26T19:11:37.176Z,101642.05
2023-01-26T19:14:06.265Z,101644.99
2023-01-26T19:16:36.240Z,101642.38
2023-01-26T19:19:05.265Z,101639.42
2023-01-26T19:21:34.225Z,101633.91
2023-01-26T19:24:06.312Z,101632.17
2023-01-26T19:26:35.027Z,101631.15
2023-01-26T19:29:03.809Z,101630.63
2023-01-26T19:31:35.192Z,101634.22
2023-01-26T19:34:05.932Z,101641.41
2023-01-26T19:36:35.881Z,101636.89
2023-01-26T19:39:04.220Z,101636.16
2023-01-26T19:41:34.487Z,101637.88
2023-01-26T19:44:02.632Z,101641.58
2023-01-26T19:46:30.870Z,101642.65
2023-01-26T19:48:59.129Z,101636.35
2023-01-26T19:51:27.517Z,101634.85
2023-01-26T19:53:58.288Z,101636.63
2023-01-26T19:56:29.612Z,101633.23
2023-01-26T19:59:03.423Z,101626.91
2023-01-26T20:01:33.385Z,101625.25
2023-01-26T20:04:13.244Z,101620.78
2023-01-26T20:06:41.572Z,101616.35
2023-01-26T20:09:10.641Z,101615.83
2023-01-26T20:11:39.120Z,101611.87
2023-01-26T20:14:11.232Z,101612.38
2023-01-26T20:16:39.849Z,101615.48
2023-01-26T20:19:08.023Z,101617.21
2023-01-26T20:21:39.293Z,101620.17
2023-01-26T20:24:07.701Z,101623.67
2023-01-26T20:26:36.453Z,101623.73
2023-01-26T20:29:05.142Z,101622.56
2023-01-26T20:31:33.791Z,101627.70
2023-01-26T20:34:04.264Z,101625.94
2023-01-26T20:36:33.288Z,101627.30
2023-01-26T20:39:01.602Z,101631.06
2023-01-26T20:41:32.696Z,101628.17
2023-01-26T20:44:04.630Z,101627.15
2023-01-26T20:46:40.288Z,101624.73
2023-01-26T20:49:11.754Z,101625.25
2023-01-26T20:51:42.740Z,101623.52
2023-01-26T20:54:12.687Z,101623.02
2023-01-26T20:56:41.108Z,101621.83
2023-01-26T20:59:09.275Z,101621.17
2023-01-26T21:01:37.950Z,101619.84
2023-01-26T21:04:06.553Z,101616.11
2023-01-26T21:06:35.920Z,101617.16
2023-01-26T21:09:04.401Z,101616.11
2023-01-26T21:11:33.505Z,101616.45
2023-01-26T21:14:02.159Z,101612.65
2023-01-26T21:16:33.378Z,101606.60
2023-01-26T21:19:01.818Z,101605.19
2023-01-26T21:21:30.908Z,101601.27
2023-01-26T21:23:59.628Z,101593.91
2023-01-26T21:26:28.655Z,101590.21
2023-01-26T21:28:58.576Z,101586.98
2023-01-26T21:31:29.420Z,101586.98
2023-01-26T21:33:57.669Z,101583.02
2023-01-26T21:36:28.043Z,101581.10
2023-01-26T21:38:57.559Z,101580.91
2023-01-26T21:41:46.306Z,101582.48
2023-01-26T21:44:16.792Z,101581.14
2023-01-26T21:46:46.174Z,101579.25
2023-01-26T21:49:14.840Z,101571.35
2023-01-26T21:52:03.186Z,101568.05
2023-01-26T21:54:32.060Z,101565.59
2023-01-26T21:57:00.757Z,101557.28
2023-01-26T21:59:32.407Z,101560.02
2023-01-26T22:02:00.886Z,101565.16
2023-01-26T22:04:30.327Z,101565.17
2023-01-26T22:06:58.559Z,101561.44
2023-01-26T22:09:26.747Z,101552.06
2023-01-26T22:11:55.123Z,101548.98
2023-01-26T22:14:26.326Z,101550.88
2023-01-26T22:16:55.282Z,101546.58
2023-01-26T22:19:23.518Z,101542.05
2023-01-26T22:21:51.722Z,101537.05
2023-01-26T22:24:20.335Z,101532.90
2023-01-26T22:26:48.964Z,101528.95
2023-01-26T22:29:17.152Z,101522.05
2023-01-26T22:31:45.769Z,101527.40
2023-01-26T22:34:14.055Z,101527.40
2023-01-26T22:36:42.600Z,101531.39
2023-01-26T22:39:12.460Z,101528.50
2023-01-26T22:41:40.904Z,101525.64
2023-01-26T22:44:09.484Z,101525.90
2023-01-26T22:46:38.084Z,101519.42
2023-01-26T22:49:09.825Z,101515.00
2023-01-26T22:51:38.203Z,101509.11
2023-01-26T22:54:06.599Z,101509.27
2023-01-26T22:56:34.866Z,101508.08
2023-01-26T22:59:03.245Z,101509.69
2023-01-26T23:01:33.982Z,101513.87
2023-01-26T23:04:02.357Z,101514.95
2023-01-26T23:06:31.247Z,101506.06
2023-01-26T23:09:01.328Z,101506.59
2023-01-26T23:11:30.761Z,101499.55
2023-01-26T23:13:59.267Z,101502.30
2023-01-26T23:16:28.023Z,101495.21
2023-01-26T23:26:50.225Z,101483.16
2023-01-26T23:29:16.978Z,101483.80
2023-01-26T23:31:43.595Z,101486.86
2023-01-26T23:34:10.363Z,101485.68
2023-01-26T23:36:39.438Z,101487.61
2023-01-26T23:39:06.156Z,101484.05
2023-01-26T23:41:33.130Z,101487.05
2023-01-26T23:43:59.969Z,101482.95
2023-01-26T23:46:26.721Z,101482.46
2023-01-26T23:48:53.561Z,101474.60
2023-01-26T23:51:20.297Z,101478.22
2023-01-26T23:53:47.117Z,101482.00
2023-01-26T23:56:15.236Z,101475.13
2023-01-26T23:58:41.836Z,101477.90
